createdAt,value
2023-03-22T00:00:30.360Z,571.00
2023-03-22T00:01:30.364Z,569.00
2023-03-22T00:02:30.401Z,569.00
2023-03-22T00:03:30.322Z,567.00
2023-03-22T00:04:30.299Z,566.00
2023-03-22T00:05:30.310Z,562.00
2023-03-22T00:06:30.276Z,561.00
2023-03-22T00:07:30.265Z,564.00
2023-03-22T00:08:30.258Z,566.00
2023-03-22T00:09:30.233Z,570.00
2023-03-22T00:10:30.210Z,570.00
2023-03-22T00:11:30.207Z,572.00
2023-03-22T00:12:30.204Z,569.00
2023-03-22T00:13:30.180Z,568.00
2023-03-22T00:14:30.174Z,568.00
2023-03-22T00:15:30.176Z,569.00
2023-03-22T00:16:30.223Z,565.00
2023-03-22T00:17:30.140Z,564.00
2023-03-22T00:18:30.124Z,564.00
2023-03-22T00:19:30.118Z,566.00
2023-03-22T00:20:30.125Z,570.00
2023-03-22T00:21:30.125Z,569.00
2023-03-22T00:22:30.094Z,570.00
2023-03-22T00:23:30.092Z,570.00
2023-03-22T00:24:30.077Z,567.00
2023-03-22T00:25:30.057Z,563.00
2023-03-22T00:26:30.064Z,558.00
2023-03-22T00:27:30.036Z,559.00
2023-03-22T00:28:30.020Z,559.00
2023-03-22T00:29:30.045Z,560.00
2023-03-22T00:30:29.998Z,562.00
2023-03-22T00:31:30.040Z,560.00
2023-03-22T00:32:29.973Z,561.00
2023-03-22T00:33:29.969Z,559.00
2023-03-22T00:34:29.945Z,558.00
2023-03-22T00:35:29.984Z,558.00
2023-03-22T00:36:29.936Z,558.00
2023-03-22T00:37:29.934Z,558.00
2023-03-22T00:38:41.421Z,559.00
2023-03-22T00:39:30.906Z,561.00
2023-03-22T00:40:29.911Z,560.00
2023-03-22T00:41:29.888Z,561.00
2023-03-22T00:42:29.885Z,562.00
2023-03-22T00:43:29.883Z,564.00
2023-03-22T00:44:29.865Z,564.00
2023-03-22T00:45:29.848Z,561.00
2023-03-22T00:46:29.863Z,557.00
2023-03-22T00:47:29.832Z,559.00
2023-03-22T00:48:29.827Z,558.00
2023-03-22T00:49:29.800Z,556.00
2023-03-22T00:50:29.791Z,558.00
2023-03-22T00:51:29.773Z,558.00
2023-03-22T00:52:29.765Z,560.00
2023-03-22T00:53:29.780Z,563.00
2023-03-22T00:54:29.739Z,561.00
2023-03-22T00:55:29.711Z,561.00
2023-03-22T00:56:29.697Z,562.00
2023-03-22T00:57:29.709Z,561.00
2023-03-22T00:58:29.675Z,561.00
2023-03-22T00:59:29.673Z,562.00
2023-03-22T01:00:29.669Z,559.00
2023-03-22T01:01:29.719Z,557.00
2023-03-22T01:02:29.632Z,556.00
2023-03-22T01:03:29.679Z,555.00
2023-03-22T01:04:29.609Z,555.00
2023-03-22T01:05:29.598Z,556.00
2023-03-22T01:06:29.585Z,558.00
2023-03-22T01:07:29.579Z,558.00
2023-03-22T01:08:29.556Z,557.00
2023-03-22T01:09:29.548Z,556.00
2023-03-22T01:10:29.524Z,555.00
2023-03-22T01:11:29.516Z,553.00
2023-03-22T01:12:29.520Z,555.00
2023-03-22T01:13:29.494Z,554.00
2023-03-22T01:14:29.494Z,553.00
2023-03-22T01:15:29.492Z,551.00
2023-03-22T01:16:29.499Z,545.00
2023-03-22T01:17:29.466Z,543.00
2023-03-22T01:18:29.440Z,542.00
2023-03-22T01:19:29.432Z,542.00
2023-03-22T01:20:29.435Z,538.00
2023-03-22T01:21:29.430Z,540.00
2023-03-22T01:22:29.419Z,538.00
2023-03-22T01:23:29.400Z,539.00
2023-03-22T01:24:29.386Z,541.00
2023-03-22T01:25:29.367Z,545.00
2023-03-22T01:26:29.368Z,543.00
2023-03-22T01:27:29.344Z,542.00
2023-03-22T01:28:29.363Z,542.00
2023-03-22T01:29:29.321Z,541.00
2023-03-22T01:30:29.334Z,539.00
2023-03-22T01:31:29.309Z,538.00
2023-03-22T01:32:29.292Z,537.00
2023-03-22T01:33:29.276Z,539.00
2023-03-22T01:34:29.259Z,538.00
2023-03-22T01:35:29.273Z,539.00
2023-03-22T01:36:29.256Z,540.00
2023-03-22T01:37:29.249Z,541.00
2023-03-22T01:38:29.238Z,539.00
2023-03-22T01:39:29.200Z,539.00
2023-03-22T01:40:29.188Z,541.00
2023-03-22T01:41:29.177Z,542.00
2023-03-22T01:42:29.196Z,540.00
2023-03-22T01:43:29.164Z,539.00
2023-03-22T01:44:29.140Z,539.00
2023-03-22T01:45:29.139Z,539.00
2023-03-22T01:46:29.145Z,542.00
2023-03-22T01:47:29.110Z,544.00
2023-03-22T01:48:29.104Z,546.00
2023-03-22T01:49:29.087Z,547.00
2023-03-22T01:50:29.056Z,544.00
2023-03-22T01:51:29.057Z,543.00
2023-03-22T01:52:29.045Z,542.00
2023-03-22T01:53:29.058Z,541.00
2023-03-22T01:54:29.023Z,542.00
2023-03-22T01:55:29.008Z,544.00
2023-03-22T01:56:28.988Z,545.00
2023-03-22T01:57:28.964Z,546.00
2023-03-22T01:58:28.954Z,545.00
2023-03-22T01:59:28.934Z,546.00
2023-03-22T02:00:28.925Z,546.00
2023-03-22T02:01:28.961Z,545.00
2023-03-22T02:02:28.888Z,544.00
2023-03-22T02:03:28.915Z,545.00
2023-03-22T02:04:28.859Z,546.00
2023-03-22T02:05:28.860Z,551.00
2023-03-22T02:06:28.837Z,548.00
2023-03-22T02:07:28.834Z,551.00
2023-03-22T02:08:28.829Z,549.00
2023-03-22T02:09:28.815Z,551.00
2023-03-22T02:10:28.798Z,549.00
2023-03-22T02:11:28.798Z,545.00
2023-03-22T02:12:28.780Z,545.00
2023-03-22T02:13:28.770Z,544.00
2023-03-22T02:14:28.762Z,543.00
2023-03-22T02:15:28.750Z,542.00
2023-03-22T02:16:28.724Z,541.00
2023-03-22T02:17:28.736Z,538.00
2023-03-22T02:18:28.719Z,540.00
2023-03-22T02:19:28.710Z,540.00
2023-03-22T02:20:28.694Z,539.00
2023-03-22T02:21:28.690Z,538.00
2023-03-22T02:22:28.678Z,538.00
2023-03-22T02:23:28.670Z,537.00
2023-03-22T02:24:28.664Z,537.00
2023-03-22T02:25:28.619Z,536.00
2023-03-22T02:26:28.617Z,537.00
2023-03-22T02:27:28.601Z,538.00
2023-03-22T02:28:28.611Z,539.00
2023-03-22T02:29:28.594Z,537.00
2023-03-22T02:30:28.570Z,536.00
2023-03-22T02:31:28.623Z,536.00
2023-03-22T02:32:28.570Z,533.00
2023-03-22T02:33:28.539Z,533.00
2023-03-22T02:34:28.562Z,532.00
2023-03-22T02:35:28.592Z,533.00
2023-03-22T02:36:28.498Z,530.00
2023-03-22T02:37:28.492Z,532.00
2023-03-22T02:38:28.487Z,533.00
2023-03-22T02:39:28.479Z,532.00
2023-03-22T02:40:28.453Z,531.00
2023-03-22T02:41:28.451Z,533.00
2023-03-22T02:42:28.433Z,530.00
2023-03-22T02:43:28.424Z,525.00
2023-03-22T02:44:28.398Z,524.00
2023-03-22T02:45:28.384Z,524.00
2023-03-22T02:46:28.387Z,522.00
2023-03-22T02:47:28.349Z,524.00
2023-03-22T02:48:28.327Z,526.00
2023-03-22T02:49:28.318Z,531.00
2023-03-22T02:50:28.318Z,530.00
2023-03-22T02:51:28.296Z,530.00
2023-03-22T02:52:28.293Z,530.00
2023-03-22T02:53:28.268Z,532.00
2023-03-22T02:54:28.271Z,533.00
2023-03-22T02:55:28.247Z,530.00
2023-03-22T02:56:28.235Z,529.00
2023-03-22T02:57:28.239Z,524.00
2023-03-22T02:58:28.211Z,520.00
2023-03-22T02:59:28.211Z,510.00
2023-03-22T03:00:28.194Z,502.00
2023-03-22T03:01:28.169Z,493.00
2023-03-22T03:02:28.238Z,487.00
2023-03-22T03:03:28.148Z,483.00
2023-03-22T03:04:28.140Z,477.00
2023-03-22T03:05:28.133Z,473.00
2023-03-22T03:06:28.122Z,465.00
2023-03-22T03:07:28.123Z,462.00
2023-03-22T03:08:28.113Z,458.00
2023-03-22T03:09:28.109Z,455.00
2023-03-22T03:10:28.094Z,449.00
2023-03-22T03:11:28.109Z,447.00
2023-03-22T03:12:28.114Z,446.00
2023-03-22T03:13:28.093Z,444.00
2023-03-22T03:14:28.087Z,443.00
2023-03-22T03:15:28.078Z,439.00
2023-03-22T03:16:28.068Z,434.00
2023-03-22T03:17:28.074Z,429.00
2023-03-22T03:18:28.060Z,427.00
2023-03-22T03:19:28.074Z,425.00
2023-03-22T03:20:28.040Z,423.00
2023-03-22T03:21:28.044Z,421.00
2023-03-22T03:22:28.055Z,420.00
2023-03-22T03:23:28.064Z,420.00
2023-03-22T03:24:28.042Z,419.00
2023-03-22T03:25:28.037Z,416.00
2023-03-22T03:26:28.037Z,413.00
2023-03-22T03:27:28.033Z,411.00
2023-03-22T03:28:28.033Z,410.00
2023-03-22T03:29:28.047Z,408.00
2023-03-22T03:30:28.021Z,408.00
2023-03-22T03:31:28.086Z,409.00
2023-03-22T03:32:28.019Z,409.00
2023-03-22T03:33:27.992Z,411.00
2023-03-22T03:34:27.997Z,409.00
2023-03-22T03:35:27.989Z,407.00
2023-03-22T03:36:27.964Z,405.00
2023-03-22T03:37:27.950Z,403.00
2023-03-22T03:38:27.960Z,404.00
2023-03-22T03:39:27.953Z,402.00
2023-03-22T03:40:27.958Z,401.00
2023-03-22T03:41:27.942Z,399.00
2023-03-22T03:42:27.962Z,398.00
2023-03-22T03:43:27.950Z,396.00
2023-03-22T03:44:27.940Z,395.00
2023-03-22T03:45:27.991Z,392.00
2023-03-22T03:46:27.941Z,391.00
2023-03-22T03:47:27.947Z,389.00
2023-03-22T03:48:27.963Z,390.00
2023-03-22T03:49:27.955Z,388.00
2023-03-22T03:50:27.962Z,388.00
2023-03-22T03:51:27.957Z,386.00
2023-03-22T03:52:27.941Z,386.00
2023-03-22T03:53:27.941Z,386.00
2023-03-22T03:54:27.966Z,389.00
2023-03-22T03:55:27.966Z,387.00
2023-03-22T03:56:27.969Z,382.00
2023-03-22T03:57:27.980Z,383.00
2023-03-22T03:58:27.967Z,383.00
2023-03-22T03:59:27.960Z,381.00
2023-03-22T04:00:27.971Z,382.00
2023-03-22T04:01:27.966Z,384.00
2023-03-22T04:02:28.030Z,386.00
2023-03-22T04:03:27.973Z,387.00
2023-03-22T04:04:28.107Z,388.00
2023-03-22T04:05:27.982Z,389.00
2023-03-22T04:06:27.977Z,389.00
2023-03-22T04:07:27.966Z,387.00
2023-03-22T04:08:27.976Z,392.00
2023-03-22T04:09:27.980Z,389.00
2023-03-22T04:10:27.974Z,389.00
2023-03-22T04:11:27.958Z,392.00
2023-03-22T04:12:27.968Z,394.00
2023-03-22T04:13:27.980Z,392.00
2023-03-22T04:14:27.985Z,391.00
2023-03-22T04:15:28.238Z,390.00
2023-03-22T04:16:27.988Z,390.00
2023-03-22T04:17:27.966Z,388.00
2023-03-22T04:18:27.986Z,385.00
2023-03-22T04:19:27.971Z,384.00
2023-03-22T04:20:27.980Z,385.00
2023-03-22T04:21:27.971Z,385.00
2023-03-22T04:22:27.966Z,386.00
2023-03-22T04:23:27.968Z,388.00
2023-03-22T04:24:27.984Z,386.00
2023-03-22T04:25:27.959Z,389.00
2023-03-22T04:26:27.972Z,389.00
2023-03-22T04:27:27.963Z,391.00
2023-03-22T04:28:27.968Z,388.00
2023-03-22T04:29:27.956Z,389.00
2023-03-22T04:30:27.972Z,385.00
2023-03-22T04:31:28.007Z,386.00
2023-03-22T04:32:27.975Z,384.00
2023-03-22T04:33:27.971Z,385.00
2023-03-22T04:34:27.973Z,388.00
2023-03-22T04:35:27.997Z,391.00
2023-03-22T04:36:27.993Z,390.00
2023-03-22T04:37:27.980Z,389.00
2023-03-22T04:38:27.974Z,389.00
2023-03-22T04:39:27.982Z,388.00
2023-03-22T04:40:27.976Z,387.00
2023-03-22T04:41:29.477Z,389.00
2023-03-22T04:42:27.968Z,389.00
2023-03-22T04:43:27.973Z,384.00
2023-03-22T04:44:27.977Z,384.00
2023-03-22T04:45:27.972Z,385.00
2023-03-22T04:46:28.023Z,384.00
2023-03-22T04:47:27.986Z,385.00
2023-03-22T04:48:28.024Z,383.00
2023-03-22T04:49:27.997Z,382.00
2023-03-22T04:50:28.001Z,384.00
2023-03-22T04:51:28.008Z,384.00
2023-03-22T04:52:28.020Z,384.00
2023-03-22T04:53:28.068Z,383.00
2023-03-22T04:54:28.030Z,381.00
2023-03-22T04:55:28.030Z,379.00
2023-03-22T04:56:28.037Z,381.00
2023-03-22T04:57:28.046Z,381.00
2023-03-22T04:58:28.053Z,381.00
2023-03-22T04:59:28.032Z,383.00
2023-03-22T05:00:28.036Z,382.00
2023-03-22T05:01:28.068Z,381.00
2023-03-22T05:02:28.066Z,382.00
2023-03-22T05:03:28.043Z,385.00
2023-03-22T05:04:28.059Z,384.00
2023-03-22T05:05:28.041Z,385.00
2023-03-22T05:06:28.043Z,385.00
2023-03-22T05:07:28.043Z,386.00
2023-03-22T05:08:28.050Z,385.00
2023-03-22T05:09:28.050Z,386.00
2023-03-22T05:10:28.072Z,388.00
2023-03-22T05:11:28.079Z,386.00
2023-03-22T05:12:28.061Z,385.00
2023-03-22T05:13:28.067Z,383.00
2023-03-22T05:14:28.126Z,382.00
2023-03-22T05:15:28.077Z,380.00
2023-03-22T05:16:28.242Z,379.00
2023-03-22T05:17:28.074Z,379.00
2023-03-22T05:18:28.100Z,378.00
2023-03-22T05:19:28.083Z,379.00
2023-03-22T05:20:28.091Z,380.00
2023-03-22T05:21:28.086Z,381.00
2023-03-22T05:22:28.103Z,381.00
2023-03-22T05:23:28.093Z,377.00
2023-03-22T05:24:28.095Z,375.00
2023-03-22T05:25:28.105Z,375.00
2023-03-22T05:26:28.112Z,375.00
2023-03-22T05:27:28.116Z,373.00
2023-03-22T05:28:28.111Z,373.00
2023-03-22T05:29:28.111Z,374.00
2023-03-22T05:30:28.113Z,374.00
2023-03-22T05:31:28.133Z,374.00
2023-03-22T05:32:28.127Z,378.00
2023-03-22T05:33:28.118Z,378.00
2023-03-22T05:34:28.128Z,378.00
2023-03-22T05:35:28.170Z,378.00
2023-03-22T05:36:28.138Z,381.00
2023-03-22T05:37:28.133Z,382.00
2023-03-22T05:38:28.137Z,380.00
2023-03-22T05:39:28.136Z,378.00
2023-03-22T05:40:28.159Z,380.00
2023-03-22T05:41:28.160Z,381.00
2023-03-22T05:42:28.179Z,382.00
2023-03-22T05:43:28.168Z,384.00
2023-03-22T05:44:28.187Z,384.00
2023-03-22T05:45:28.195Z,386.00
2023-03-22T05:46:28.276Z,386.00
2023-03-22T05:47:28.207Z,389.00
2023-03-22T05:48:28.208Z,390.00
2023-03-22T05:49:28.209Z,391.00
2023-03-22T05:50:28.216Z,391.00
2023-03-22T05:51:28.217Z,391.00
2023-03-22T05:52:28.217Z,390.00
2023-03-22T05:53:28.218Z,391.00
2023-03-22T05:54:28.217Z,391.00
2023-03-22T05:55:28.219Z,391.00
2023-03-22T05:56:28.223Z,393.00
2023-03-22T05:57:28.219Z,393.00
2023-03-22T05:58:28.224Z,394.00
2023-03-22T05:59:28.225Z,393.00
2023-03-22T06:00:28.233Z,391.00
2023-03-22T06:01:28.208Z,391.00
2023-03-22T06:02:28.213Z,393.00
2023-03-22T06:03:28.289Z,393.00
2023-03-22T06:04:28.277Z,395.00
2023-03-22T06:05:28.198Z,395.00
2023-03-22T06:06:28.239Z,392.00
2023-03-22T06:07:28.203Z,393.00
2023-03-22T06:08:28.198Z,394.00
2023-03-22T06:09:28.204Z,395.00
2023-03-22T06:10:28.194Z,397.00
2023-03-22T06:11:28.187Z,395.00
2023-03-22T06:12:30.087Z,393.00
2023-03-22T06:13:28.214Z,393.00
2023-03-22T06:14:28.195Z,391.00
2023-03-22T06:15:28.219Z,389.00
2023-03-22T06:16:28.245Z,391.00
2023-03-22T06:17:28.199Z,389.00
2023-03-22T06:18:28.192Z,390.00
2023-03-22T06:19:28.195Z,390.00
2023-03-22T06:20:28.180Z,389.00
2023-03-22T06:21:28.168Z,391.00
2023-03-22T06:22:28.168Z,391.00
2023-03-22T06:23:28.163Z,392.00
2023-03-22T06:24:28.170Z,391.00
2023-03-22T06:25:28.154Z,393.00
2023-03-22T06:26:28.151Z,396.00
2023-03-22T06:27:28.168Z,396.00
2023-03-22T06:28:28.146Z,394.00
2023-03-22T06:29:28.146Z,395.00
2023-03-22T06:30:28.175Z,398.00
2023-03-22T06:31:28.162Z,399.00
2023-03-22T06:32:28.150Z,409.00
2023-03-22T06:33:28.150Z,513.00
2023-03-22T06:34:28.162Z,504.00
2023-03-22T06:35:28.145Z,448.00
2023-03-22T06:36:28.157Z,442.00
2023-03-22T06:37:28.156Z,460.00
2023-03-22T06:38:28.167Z,500.00
2023-03-22T06:39:28.136Z,535.00
2023-03-22T06:40:28.160Z,527.00
2023-03-22T06:41:28.143Z,539.00
2023-03-22T06:42:28.155Z,548.00
2023-03-22T06:43:28.146Z,557.00
2023-03-22T06:44:28.160Z,556.00
2023-03-22T06:45:28.143Z,567.00
2023-03-22T06:46:28.189Z,575.00
2023-03-22T06:47:28.205Z,608.00
2023-03-22T06:48:28.193Z,623.00
2023-03-22T06:49:28.167Z,606.00
2023-03-22T06:50:28.174Z,598.00
2023-03-22T06:51:28.179Z,607.00
2023-03-22T06:52:28.177Z,608.00
2023-03-22T06:53:28.201Z,609.00
2023-03-22T06:54:28.194Z,620.00
2023-03-22T06:55:28.240Z,585.00
2023-03-22T06:56:28.221Z,597.00
2023-03-22T06:57:28.231Z,590.00
2023-03-22T06:58:28.225Z,594.00
2023-03-22T06:59:28.197Z,597.00
2023-03-22T07:00:28.218Z,526.00
2023-03-22T07:01:28.304Z,542.00
2023-03-22T07:02:28.273Z,542.00
2023-03-22T07:03:28.244Z,542.00
2023-03-22T07:04:28.352Z,541.00
2023-03-22T07:05:28.257Z,542.00
2023-03-22T07:06:28.300Z,581.00
2023-03-22T07:07:28.256Z,558.00
2023-03-22T07:08:28.267Z,554.00
2023-03-22T07:09:28.261Z,556.00
2023-03-22T07:10:28.267Z,553.00
2023-03-22T07:11:28.278Z,553.00
2023-03-22T07:12:28.346Z,545.00
2023-03-22T07:13:28.279Z,547.00
2023-03-22T07:14:28.283Z,541.00
2023-03-22T07:15:28.304Z,546.00
2023-03-22T07:16:28.480Z,558.00
2023-03-22T07:17:28.283Z,571.00
2023-03-22T07:18:28.290Z,564.00
2023-03-22T07:19:28.288Z,547.00
2023-03-22T07:20:28.866Z,545.00
2023-03-22T07:21:28.298Z,538.00
2023-03-22T07:22:28.297Z,541.00
2023-03-22T07:23:28.295Z,600.00
2023-03-22T07:24:28.301Z,610.00
2023-03-22T07:25:28.292Z,605.00
2023-03-22T07:26:28.301Z,608.00
2023-03-22T07:27:28.306Z,615.00
2023-03-22T07:28:28.314Z,622.00
2023-03-22T07:29:28.308Z,624.00
2023-03-22T07:30:28.340Z,632.00
2023-03-22T07:31:28.305Z,651.00
2023-03-22T07:32:28.464Z,675.00
2023-03-22T07:33:28.316Z,686.00
2023-03-22T07:34:28.330Z,705.00
2023-03-22T07:35:28.350Z,717.00
2023-03-22T07:36:28.288Z,726.00
2023-03-22T07:37:28.318Z,740.00
2023-03-22T07:38:28.302Z,742.00
2023-03-22T07:39:28.310Z,763.00
2023-03-22T07:40:28.287Z,769.00
2023-03-22T07:41:28.286Z,773.00
2023-03-22T07:42:28.301Z,821.00
2023-03-22T07:43:28.274Z,784.00
2023-03-22T07:44:28.291Z,693.00
2023-03-22T07:45:28.291Z,696.00
2023-03-22T09:31:49.351Z,921.00
2023-03-22T09:32:49.288Z,869.00
2023-03-22T09:33:49.231Z,795.00
2023-03-22T09:34:49.161Z,649.00
2023-03-22T09:35:49.185Z,538.00
2023-03-22T09:36:49.025Z,537.00
2023-03-22T11:30:39.649Z,571.00
2023-03-22T11:31:39.070Z,563.00
2023-03-22T12:13:35.033Z,413.00
2023-03-22T12:14:34.911Z,413.00
2023-03-22T12:15:34.925Z,410.00
2023-03-22T12:16:34.871Z,409.00
2023-03-22T12:17:34.661Z,409.00
2023-03-22T12:18:34.560Z,406.00
2023-03-22T12:19:34.453Z,406.00
2023-03-22T12:20:34.359Z,405.00
2023-03-22T12:21:34.268Z,404.00
2023-03-22T12:22:34.170Z,403.00
2023-03-22T12:23:34.073Z,402.00
2023-03-22T12:24:33.974Z,401.00
2023-03-22T12:25:33.865Z,397.00
2023-03-22T12:26:33.800Z,396.00
2023-03-22T12:27:33.666Z,394.00
2023-03-22T12:28:33.591Z,393.00
2023-03-22T12:29:33.469Z,390.00
2023-03-22T12:30:33.390Z,390.00
2023-03-22T12:31:33.353Z,386.00
2023-03-22T12:32:33.252Z,380.00
2023-03-22T12:33:33.122Z,381.00
2023-03-22T12:34:32.995Z,382.00
2023-03-22T12:35:32.908Z,385.00
2023-03-22T12:36:32.821Z,383.00
2023-03-22T12:37:32.691Z,382.00
2023-03-22T12:38:32.609Z,383.00
2023-03-22T12:39:32.525Z,385.00
2023-03-22T12:40:32.422Z,387.00
2023-03-22T12:41:32.331Z,387.00
2023-03-22T12:42:34.730Z,387.00
2023-03-22T12:43:32.407Z,391.00
2023-03-22T12:44:32.212Z,395.00
2023-03-22T12:45:32.113Z,397.00
2023-03-22T12:46:32.038Z,395.00
2023-03-22T12:47:31.988Z,398.00
2023-03-22T12:48:31.977Z,400.00
2023-03-22T12:49:31.724Z,403.00
2023-03-22T12:50:31.625Z,404.00
2023-03-22T12:51:31.519Z,403.00
2023-03-22T12:52:34.847Z,405.00
2023-03-22T12:53:32.317Z,409.00
2023-03-22T12:54:31.212Z,411.00
2023-03-22T12:55:31.130Z,411.00
2023-03-22T12:56:31.027Z,410.00
2023-03-22T12:57:30.962Z,412.00
2023-03-22T12:58:30.850Z,409.00
2023-03-22T12:59:30.750Z,419.00
2023-03-22T13:00:30.685Z,421.00
2023-03-22T13:01:30.609Z,420.00
2023-03-22T13:02:30.594Z,420.00
2023-03-22T13:03:30.596Z,419.00
2023-03-22T13:04:30.258Z,421.00
2023-03-22T13:05:30.165Z,421.00
2023-03-22T13:06:30.052Z,421.00
2023-03-22T13:07:29.952Z,423.00
2023-03-22T13:08:31.835Z,423.00
2023-03-22T13:09:29.760Z,424.00
2023-03-22T13:10:29.700Z,425.00
2023-03-22T13:11:29.567Z,424.00
2023-03-22T13:12:29.466Z,426.00
2023-03-22T13:13:29.378Z,424.00
2023-03-22T13:14:29.277Z,424.00
2023-03-22T13:15:40.460Z,423.00
2023-03-22T13:16:30.120Z,422.00
2023-03-22T13:17:29.002Z,421.00
2023-03-22T13:18:30.538Z,420.00
2023-03-22T13:19:28.824Z,424.00
2023-03-22T13:20:28.684Z,419.00
2023-03-22T13:21:28.587Z,420.00
2023-03-22T13:22:28.489Z,421.00
2023-03-22T13:23:28.390Z,421.00
2023-03-22T13:24:28.288Z,421.00
2023-03-22T13:25:28.186Z,422.00
2023-03-22T13:26:28.086Z,419.00
2023-03-22T13:27:27.996Z,421.00
2023-03-22T13:28:27.903Z,421.00
2023-03-22T13:29:27.806Z,423.00
2023-03-22T13:30:27.687Z,424.00
2023-03-22T13:31:27.636Z,423.00
2023-03-22T13:32:27.515Z,422.00
2023-03-22T13:33:27.446Z,422.00
2023-03-22T13:34:27.328Z,421.00
2023-03-22T13:35:27.219Z,421.00
2023-03-22T13:36:27.121Z,420.00
2023-03-22T13:37:27.008Z,419.00
2023-03-22T13:38:26.900Z,419.00
2023-03-22T13:39:26.815Z,416.00
2023-03-22T13:40:26.695Z,415.00
2023-03-22T13:41:26.605Z,415.00
2023-03-22T13:42:26.490Z,414.00
2023-03-22T13:43:26.394Z,417.00
2023-03-22T13:44:26.305Z,416.00
2023-03-22T13:45:26.240Z,414.00
2023-03-22T13:46:26.181Z,414.00
2023-03-22T13:47:26.057Z,413.00
2023-03-22T13:48:25.994Z,414.00
2023-03-22T13:49:25.817Z,413.00
2023-03-22T13:50:25.700Z,412.00
2023-03-22T13:51:25.729Z,410.00
2023-03-22T13:52:25.512Z,409.00
2023-03-22T13:53:25.408Z,406.00
2023-03-22T13:54:25.424Z,405.00
2023-03-22T13:55:25.207Z,406.00
2023-03-22T13:56:25.094Z,407.00
2023-03-22T13:57:24.999Z,410.00
2023-03-22T13:58:24.904Z,411.00
2023-03-22T13:59:24.801Z,411.00
2023-03-22T14:00:24.722Z,413.00
2023-03-22T14:01:24.657Z,411.00
2023-03-22T14:02:24.671Z,410.00
2023-03-22T14:03:24.620Z,410.00
2023-03-22T14:04:24.291Z,409.00
2023-03-22T14:05:24.204Z,410.00
2023-03-22T14:06:24.108Z,413.00
2023-03-22T14:07:23.998Z,411.00
2023-03-22T14:08:23.894Z,408.00
2023-03-22T14:09:23.795Z,410.00
2023-03-22T14:10:23.751Z,412.00
2023-03-22T14:11:23.601Z,411.00
2023-03-22T14:12:23.523Z,409.00
2023-03-22T14:13:23.391Z,409.00
2023-03-22T14:14:23.280Z,410.00
2023-03-22T14:15:23.188Z,410.00
2023-03-22T14:16:23.178Z,410.00
2023-03-22T14:17:23.001Z,408.00
2023-03-22T14:18:22.883Z,407.00
2023-03-22T14:19:22.779Z,405.00
2023-03-22T14:20:22.684Z,403.00
2023-03-22T14:21:22.569Z,403.00
2023-03-22T14:46:12.044Z,405.00
2023-03-22T14:47:12.014Z,405.00
2023-03-22T14:51:11.917Z,414.00
2023-03-22T14:52:11.883Z,413.00
2023-03-22T14:53:11.855Z,413.00
2023-03-22T15:00:11.666Z,406.00
2023-03-22T15:01:11.640Z,406.00
2023-03-22T15:03:13.707Z,408.00
2023-03-22T15:04:11.667Z,409.00
2023-03-22T15:05:11.655Z,409.00
2023-03-22T15:06:11.636Z,406.00
2023-03-22T15:11:12.284Z,409.00
2023-03-22T15:13:11.457Z,407.00
2023-03-22T15:15:11.398Z,407.00
2023-03-22T15:16:11.457Z,408.00
2023-03-22T15:17:11.349Z,409.00
2023-03-22T15:21:11.230Z,411.00
2023-03-22T15:22:11.210Z,410.00
2023-03-22T15:25:11.113Z,411.00
2023-03-22T15:26:11.088Z,411.00
2023-03-22T15:27:11.059Z,411.00
2023-03-22T15:28:11.046Z,411.00
2023-03-22T15:31:10.988Z,409.00
2023-03-22T15:32:10.927Z,406.00
2023-03-22T15:36:10.812Z,408.00
2023-03-22T15:37:10.769Z,404.00
2023-03-22T15:38:10.738Z,404.00
2023-03-22T15:40:10.702Z,404.00
2023-03-22T15:42:10.640Z,407.00
2023-03-22T15:45:10.567Z,409.00
2023-03-22T15:46:10.620Z,410.00
2023-03-22T15:49:10.461Z,409.00
2023-03-22T15:50:10.445Z,407.00
2023-03-22T15:51:10.423Z,406.00
2023-03-22T15:52:10.385Z,405.00
2023-03-22T15:53:10.358Z,406.00
2023-03-22T15:56:10.300Z,406.00
2023-03-22T15:57:10.292Z,405.00
2023-03-22T15:59:10.207Z,407.00
2023-03-22T16:02:10.140Z,409.00
2023-03-22T16:03:10.142Z,407.00
2023-03-22T16:06:10.049Z,409.00
2023-03-22T16:07:09.994Z,406.00
2023-03-22T16:08:09.966Z,407.00
2023-03-22T16:09:09.947Z,410.00
2023-03-22T16:13:09.845Z,412.00
2023-03-22T16:14:09.817Z,410.00
2023-03-22T16:17:09.749Z,407.00
2023-03-22T16:18:09.731Z,409.00
2023-03-22T16:19:09.710Z,409.00
2023-03-22T16:24:09.591Z,415.00
2023-03-22T16:26:09.531Z,413.00
2023-03-22T16:27:09.521Z,412.00
2023-03-22T16:28:09.503Z,412.00
2023-03-22T16:29:09.463Z,413.00
2023-03-22T16:34:09.367Z,412.00
2023-03-22T16:35:09.342Z,414.00
2023-03-22T16:37:09.332Z,410.00
2023-03-22T16:38:09.273Z,411.00
2023-03-22T16:40:09.239Z,410.00
2023-03-22T16:44:09.125Z,410.00
2023-03-22T16:45:09.093Z,411.00
2023-03-22T16:46:09.100Z,411.00
2023-03-22T16:47:09.047Z,414.00
2023-03-22T16:48:09.020Z,415.00
2023-03-22T16:52:08.925Z,413.00
2023-03-22T16:55:10.127Z,414.00
2023-03-22T16:56:08.851Z,412.00
2023-03-22T16:57:08.841Z,415.00
2023-03-22T16:58:08.791Z,412.00
2023-03-22T16:59:08.755Z,411.00
2023-03-22T17:03:08.661Z,413.00
2023-03-22T17:05:08.678Z,413.00
2023-03-22T17:07:08.574Z,407.00
2023-03-22T17:08:08.540Z,408.00
2023-03-22T17:09:08.517Z,408.00
2023-03-22T17:14:08.384Z,412.00
2023-03-22T17:16:08.377Z,413.00
2023-03-22T17:17:08.328Z,413.00
2023-03-22T17:18:08.290Z,417.00
2023-03-22T17:19:08.419Z,419.00
2023-03-22T17:20:08.240Z,419.00
2023-03-22T17:23:08.154Z,412.00
2023-03-22T17:24:08.125Z,414.00
2023-03-22T17:28:08.036Z,415.00
2023-03-22T17:30:08.000Z,415.00
2023-03-22T17:32:12.955Z,419.00
2023-03-22T17:34:08.034Z,420.00
2023-03-22T17:37:07.809Z,416.00
2023-03-22T17:38:09.264Z,415.00
2023-03-22T17:41:08.044Z,411.00
2023-03-22T17:42:07.683Z,412.00
2023-03-22T17:44:07.645Z,410.00
2023-03-22T17:45:07.718Z,410.00
2023-03-22T17:46:48.972Z,410.00
2023-03-22T17:47:35.306Z,411.00
2023-03-22T17:48:08.557Z,412.00
2023-03-22T17:49:07.518Z,411.00
2023-03-22T17:53:20.980Z,409.00
2023-03-22T17:56:43.199Z,409.00
2023-03-22T17:57:36.323Z,410.00
2023-03-22T17:59:08.251Z,411.00
2023-03-22T18:02:07.232Z,417.00
2023-03-22T18:05:07.112Z,420.00
2023-03-22T18:06:07.089Z,419.00
2023-03-22T18:07:07.069Z,419.00
2023-03-22T18:09:07.037Z,419.00
2023-03-22T18:10:07.009Z,417.00
2023-03-22T18:13:06.930Z,419.00
2023-03-22T18:14:21.166Z,418.00
2023-03-22T18:15:07.872Z,418.00
2023-03-22T18:16:06.856Z,416.00
2023-03-22T18:22:06.716Z,421.00
2023-03-22T18:23:06.695Z,420.00
2023-03-22T18:26:12.423Z,421.00
2023-03-22T18:27:11.391Z,420.00
2023-03-22T18:29:06.561Z,416.00
2023-03-22T18:31:06.533Z,416.00
2023-03-22T18:34:06.407Z,415.00
2023-03-22T18:37:06.389Z,411.00
2023-03-22T18:38:07.544Z,410.00
2023-03-22T18:39:30.569Z,410.00
2023-03-22T18:40:51.069Z,412.00
2023-03-22T18:46:18.769Z,408.00
2023-03-22T18:48:06.036Z,409.00
2023-03-22T18:49:06.005Z,410.00
2023-03-22T18:50:05.978Z,412.00
2023-03-22T18:51:11.611Z,412.00
2023-03-22T18:54:05.897Z,416.00
2023-03-22T18:57:05.804Z,414.00
2023-03-22T18:58:05.772Z,414.00
2023-03-22T18:59:05.762Z,413.00
2023-03-22T19:00:05.726Z,414.00
2023-03-22T19:01:05.758Z,414.00
2023-03-22T19:04:05.622Z,412.00
2023-03-22T19:08:19.656Z,410.00
2023-03-22T19:10:05.457Z,408.00
2023-03-22T19:15:04.800Z,408.00
2023-03-22T19:16:06.326Z,411.00
2023-03-22T19:17:05.313Z,411.00
2023-03-22T19:18:05.278Z,412.00
2023-03-22T19:19:05.264Z,413.00
2023-03-22T19:24:05.145Z,414.00
2023-03-22T19:25:05.121Z,413.00
2023-03-22T19:27:16.232Z,408.00
2023-03-22T19:29:05.033Z,408.00